Sign-in with your pilot id or email, or register

ICAO: LEMD Name / Country: Madrid / Barajas / Spain
Latitude: 40.4686 Longitude: -3.57107
Total Arrivals:
Strict Standards: Non-static method AirportData::getarrflights() should not be called statically, assuming $this from incompatible context in /var/www/customers/vh-7192/web/home/phpvms/core/templates/airport_info.tpl on line 18
1
Total Departures:
Strict Standards: Non-static method AirportData::getdeptflights() should not be called statically, assuming $this from incompatible context in /var/www/customers/vh-7192/web/home/phpvms/core/templates/airport_info.tpl on line 21
1
Latest Arrival: MTA11P (EGCC-LEMD) Tibor Berces Latest Departure: MTA11P (LEMD-EDDK) Tibor Berces
Metar: LEMD 270930Z 01009KT 350V070 9999 FEW055 19/08 Q1016 NOSIG
More info

Charts for LEMD


NOTAM


Warning: file_get_contents(http://api.vateud.net/notams/LEMD.json): failed to open stream: Redirection limit reached, aborting in /var/www/customers/vh-7192/web/home/phpvms/core/common/NOTAMSData.class.php on line 18

Warning: Invalid argument supplied for foreach() in /var/www/customers/vh-7192/web/home/phpvms/core/common/NOTAMSData.class.php on line 22

Madrid / Barajas